sensor_id;sensor_type;location;lat;lon;timestamp;P1;durP1;ratioP1;P2;durP2;ratioP2
65835;SDS011;52595;51.608;7.216;2023-06-26T00:02:09;8.18;;;6.57;;
65835;SDS011;52595;51.608;7.216;2023-06-26T00:04:34;7.70;;;6.30;;
65835;SDS011;52595;51.608;7.216;2023-06-26T00:07:00;8.20;;;6.40;;
65835;SDS011;52595;51.608;7.216;2023-06-26T00:09:26;8.57;;;6.55;;
65835;SDS011;52595;51.608;7.216;2023-06-26T00:11:51;10.25;;;7.10;;
65835;SDS011;52595;51.608;7.216;2023-06-26T00:14:17;8.77;;;6.90;;
65835;SDS011;52595;51.608;7.216;2023-06-26T00:16:46;9.07;;;7.00;;
65835;SDS011;52595;51.608;7.216;2023-06-26T00:19:12;7.97;;;6.25;;
65835;SDS011;52595;51.608;7.216;2023-06-26T00:21:37;8.55;;;6.57;;
65835;SDS011;52595;51.608;7.216;2023-06-26T00:24:02;10.82;;;6.53;;
65835;SDS011;52595;51.608;7.216;2023-06-26T00:26:28;8.75;;;6.53;;
65835;SDS011;52595;51.608;7.216;2023-06-26T00:28:54;9.15;;;6.45;;
65835;SDS011;52595;51.608;7.216;2023-06-26T00:31:19;8.07;;;6.47;;
65835;SDS011;52595;51.608;7.216;2023-06-26T00:33:44;9.98;;;6.82;;
65835;SDS011;52595;51.608;7.216;2023-06-26T00:36:10;8.50;;;6.53;;
65835;SDS011;52595;51.608;7.216;2023-06-26T00:38:35;10.27;;;7.18;;
65835;SDS011;52595;51.608;7.216;2023-06-26T00:41:00;7.55;;;6.47;;
65835;SDS011;52595;51.608;7.216;2023-06-26T00:43:26;9.35;;;6.82;;
65835;SDS011;52595;51.608;7.216;2023-06-26T00:45:51;8.00;;;6.20;;
65835;SDS011;52595;51.608;7.216;2023-06-26T00:48:17;7.80;;;5.97;;
65835;SDS011;52595;51.608;7.216;2023-06-26T00:50:43;7.88;;;6.55;;
65835;SDS011;52595;51.608;7.216;2023-06-26T00:53:09;7.97;;;6.40;;
65835;SDS011;52595;51.608;7.216;2023-06-26T00:55:35;8.35;;;7.05;;
65835;SDS011;52595;51.608;7.216;2023-06-26T00:58:00;8.60;;;6.90;;
65835;SDS011;52595;51.608;7.216;2023-06-26T01:00:26;8.77;;;6.82;;
65835;SDS011;52595;51.608;7.216;2023-06-26T01:02:51;9.60;;;6.53;;
65835;SDS011;52595;51.608;7.216;2023-06-26T01:05:17;7.65;;;6.32;;
65835;SDS011;52595;51.608;7.216;2023-06-26T01:07:46;9.65;;;6.80;;
65835;SDS011;52595;51.608;7.216;2023-06-26T01:10:14;7.05;;;6.22;;
65835;SDS011;52595;51.608;7.216;2023-06-26T01:12:40;7.97;;;6.43;;
65835;SDS011;52595;51.608;7.216;2023-06-26T01:15:06;10.68;;;6.93;;
65835;SDS011;52595;51.608;7.216;2023-06-26T01:17:31;9.68;;;6.80;;
65835;SDS011;52595;51.608;7.216;2023-06-26T01:20:00;8.52;;;6.93;;
65835;SDS011;52595;51.608;7.216;2023-06-26T01:22:43;8.85;;;6.50;;
65835;SDS011;52595;51.608;7.216;2023-06-26T01:25:33;9.82;;;6.82;;
65835;SDS011;52595;51.608;7.216;2023-06-26T01:28:04;8.25;;;6.90;;
65835;SDS011;52595;51.608;7.216;2023-06-26T01:30:35;8.80;;;6.85;;
65835;SDS011;52595;51.608;7.216;2023-06-26T01:33:07;8.88;;;7.07;;
65835;SDS011;52595;51.608;7.216;2023-06-26T01:35:33;8.10;;;6.80;;
65835;SDS011;52595;51.608;7.216;2023-06-26T01:40:41;9.27;;;7.03;;
65835;SDS011;52595;51.608;7.216;2023-06-26T01:43:08;9.32;;;7.25;;
65835;SDS011;52595;51.608;7.216;2023-06-26T01:46:00;10.10;;;7.10;;
65835;SDS011;52595;51.608;7.216;2023-06-26T01:48:32;9.27;;;6.95;;
65835;SDS011;52595;51.608;7.216;2023-06-26T01:51:13;10.27;;;6.75;;
65835;SDS011;52595;51.608;7.216;2023-06-26T01:53:41;8.38;;;6.72;;
65835;SDS011;52595;51.608;7.216;2023-06-26T01:56:13;9.73;;;6.93;;
65835;SDS011;52595;51.608;7.216;2023-06-26T01:58:41;8.25;;;7.00;;
65835;SDS011;52595;51.608;7.216;2023-06-26T02:01:10;11.15;;;6.80;;
65835;SDS011;52595;51.608;7.216;2023-06-26T02:03:36;9.57;;;6.90;;
65835;SDS011;52595;51.608;7.216;2023-06-26T02:06:01;9.80;;;7.18;;
65835;SDS011;52595;51.608;7.216;2023-06-26T02:08:27;10.40;;;7.22;;
65835;SDS011;52595;51.608;7.216;2023-06-26T02:10:52;8.57;;;6.47;;
65835;SDS011;52595;51.608;7.216;2023-06-26T02:13:18;8.80;;;6.85;;
65835;SDS011;52595;51.608;7.216;2023-06-26T02:15:43;9.15;;;7.10;;
65835;SDS011;52595;51.608;7.216;2023-06-26T02:18:08;11.10;;;7.15;;
65835;SDS011;52595;51.608;7.216;2023-06-26T02:20:34;9.48;;;7.03;;
65835;SDS011;52595;51.608;7.216;2023-06-26T02:22:59;9.43;;;7.05;;
65835;SDS011;52595;51.608;7.216;2023-06-26T02:25:25;8.43;;;6.97;;
65835;SDS011;52595;51.608;7.216;2023-06-26T02:27:50;9.20;;;6.63;;
65835;SDS011;52595;51.608;7.216;2023-06-26T02:30:16;8.48;;;6.78;;
65835;SDS011;52595;51.608;7.216;2023-06-26T02:32:41;9.60;;;6.72;;
65835;SDS011;52595;51.608;7.216;2023-06-26T02:35:07;8.48;;;6.80;;
65835;SDS011;52595;51.608;7.216;2023-06-26T02:37:32;7.93;;;6.68;;
65835;SDS011;52595;51.608;7.216;2023-06-26T02:39:58;8.68;;;6.60;;
65835;SDS011;52595;51.608;7.216;2023-06-26T02:42:23;8.40;;;6.50;;
65835;SDS011;52595;51.608;7.216;2023-06-26T02:44:48;9.73;;;6.65;;
65835;SDS011;52595;51.608;7.216;2023-06-26T02:47:14;9.18;;;6.93;;
65835;SDS011;52595;51.608;7.216;2023-06-26T02:49:39;8.65;;;7.00;;
65835;SDS011;52595;51.608;7.216;2023-06-26T02:52:05;8.63;;;6.65;;
65835;SDS011;52595;51.608;7.216;2023-06-26T02:54:30;11.18;;;6.90;;
65835;SDS011;52595;51.608;7.216;2023-06-26T02:56:56;8.88;;;6.70;;
65835;SDS011;52595;51.608;7.216;2023-06-26T02:59:21;9.68;;;6.75;;
65835;SDS011;52595;51.608;7.216;2023-06-26T03:01:46;9.38;;;6.72;;
65835;SDS011;52595;51.608;7.216;2023-06-26T03:04:12;10.50;;;6.88;;
65835;SDS011;52595;51.608;7.216;2023-06-26T03:06:37;9.27;;;6.70;;
65835;SDS011;52595;51.608;7.216;2023-06-26T03:09:03;8.18;;;6.45;;
65835;SDS011;52595;51.608;7.216;2023-06-26T03:11:28;8.35;;;6.38;;
65835;SDS011;52595;51.608;7.216;2023-06-26T03:13:53;8.98;;;6.65;;
65835;SDS011;52595;51.608;7.216;2023-06-26T03:16:19;10.20;;;6.57;;
65835;SDS011;52595;51.608;7.216;2023-06-26T03:18:44;9.13;;;6.40;;
65835;SDS011;52595;51.608;7.216;2023-06-26T03:21:10;8.88;;;6.70;;
65835;SDS011;52595;51.608;7.216;2023-06-26T03:23:35;10.65;;;6.63;;
65835;SDS011;52595;51.608;7.216;2023-06-26T03:26:01;8.55;;;6.18;;
65835;SDS011;52595;51.608;7.216;2023-06-26T03:28:26;8.07;;;6.55;;
65835;SDS011;52595;51.608;7.216;2023-06-26T03:30:52;8.60;;;6.95;;
65835;SDS011;52595;51.608;7.216;2023-06-26T03:33:17;8.98;;;6.68;;
65835;SDS011;52595;51.608;7.216;2023-06-26T03:35:42;9.38;;;6.28;;
65835;SDS011;52595;51.608;7.216;2023-06-26T03:38:08;7.72;;;6.05;;
65835;SDS011;52595;51.608;7.216;2023-06-26T03:40:33;8.50;;;6.70;;
65835;SDS011;52595;51.608;7.216;2023-06-26T03:42:59;9.10;;;6.80;;
65835;SDS011;52595;51.608;7.216;2023-06-26T03:45:24;10.30;;;6.82;;
65835;SDS011;52595;51.608;7.216;2023-06-26T03:47:50;9.30;;;6.70;;
65835;SDS011;52595;51.608;7.216;2023-06-26T03:50:15;8.52;;;6.63;;
65835;SDS011;52595;51.608;7.216;2023-06-26T03:52:41;8.45;;;6.70;;
65835;SDS011;52595;51.608;7.216;2023-06-26T03:55:07;8.55;;;6.13;;
65835;SDS011;52595;51.608;7.216;2023-06-26T03:57:33;8.98;;;6.70;;
65835;SDS011;52595;51.608;7.216;2023-06-26T03:59:58;9.70;;;7.10;;
65835;SDS011;52595;51.608;7.216;2023-06-26T04:02:24;9.48;;;7.30;;
65835;SDS011;52595;51.608;7.216;2023-06-26T04:04:49;9.82;;;7.28;;
65835;SDS011;52595;51.608;7.216;2023-06-26T04:07:15;9.10;;;7.30;;
65835;SDS011;52595;51.608;7.216;2023-06-26T04:09:40;9.10;;;7.13;;
65835;SDS011;52595;51.608;7.216;2023-06-26T04:12:06;10.40;;;7.00;;
65835;SDS011;52595;51.608;7.216;2023-06-26T04:14:31;9.57;;;6.65;;
65835;SDS011;52595;51.608;7.216;2023-06-26T04:16:57;10.23;;;7.55;;
65835;SDS011;52595;51.608;7.216;2023-06-26T04:19:23;10.23;;;7.18;;
65835;SDS011;52595;51.608;7.216;2023-06-26T04:21:48;10.55;;;7.55;;
65835;SDS011;52595;51.608;7.216;2023-06-26T04:24:14;13.05;;;6.93;;
65835;SDS011;52595;51.608;7.216;2023-06-26T04:26:39;10.75;;;7.32;;
65835;SDS011;52595;51.608;7.216;2023-06-26T04:29:06;9.10;;;6.90;;
65835;SDS011;52595;51.608;7.216;2023-06-26T04:31:32;10.70;;;7.15;;
65835;SDS011;52595;51.608;7.216;2023-06-26T04:33:57;9.82;;;7.75;;
65835;SDS011;52595;51.608;7.216;2023-06-26T04:36:24;9.43;;;7.55;;
65835;SDS011;52595;51.608;7.216;2023-06-26T04:38:53;12.18;;;7.72;;
65835;SDS011;52595;51.608;7.216;2023-06-26T04:41:19;12.15;;;7.68;;
65835;SDS011;52595;51.608;7.216;2023-06-26T04:43:44;10.65;;;7.68;;
65835;SDS011;52595;51.608;7.216;2023-06-26T04:46:10;10.10;;;7.72;;
65835;SDS011;52595;51.608;7.216;2023-06-26T04:48:35;13.23;;;7.78;;
65835;SDS011;52595;51.608;7.216;2023-06-26T04:51:00;11.13;;;7.68;;
65835;SDS011;52595;51.608;7.216;2023-06-26T04:53:26;10.52;;;7.82;;
65835;SDS011;52595;51.608;7.216;2023-06-26T04:55:52;10.73;;;8.10;;
65835;SDS011;52595;51.608;7.216;2023-06-26T04:58:18;11.95;;;7.60;;
65835;SDS011;52595;51.608;7.216;2023-06-26T05:00:44;10.45;;;7.07;;
65835;SDS011;52595;51.608;7.216;2023-06-26T05:03:11;11.95;;;7.50;;
65835;SDS011;52595;51.608;7.216;2023-06-26T05:05:37;11.75;;;7.22;;
65835;SDS011;52595;51.608;7.216;2023-06-26T05:10:57;11.20;;;7.10;;
65835;SDS011;52595;51.608;7.216;2023-06-26T05:13:26;11.55;;;6.90;;
65835;SDS011;52595;51.608;7.216;2023-06-26T05:15:52;8.82;;;6.70;;
65835;SDS011;52595;51.608;7.216;2023-06-26T05:18:18;11.25;;;6.88;;
65835;SDS011;52595;51.608;7.216;2023-06-26T05:20:44;10.82;;;7.20;;
65835;SDS011;52595;51.608;7.216;2023-06-26T05:23:12;10.82;;;7.15;;
65835;SDS011;52595;51.608;7.216;2023-06-26T05:25:38;10.60;;;6.38;;
65835;SDS011;52595;51.608;7.216;2023-06-26T05:28:04;14.55;;;6.47;;
65835;SDS011;52595;51.608;7.216;2023-06-26T05:30:35;8.75;;;6.38;;
65835;SDS011;52595;51.608;7.216;2023-06-26T05:33:01;8.70;;;6.22;;
65835;SDS011;52595;51.608;7.216;2023-06-26T05:35:28;9.82;;;6.00;;
65835;SDS011;52595;51.608;7.216;2023-06-26T05:37:57;10.85;;;6.60;;
65835;SDS011;52595;51.608;7.216;2023-06-26T05:40:23;9.85;;;5.88;;
65835;SDS011;52595;51.608;7.216;2023-06-26T05:42:50;9.38;;;5.93;;
65835;SDS011;52595;51.608;7.216;2023-06-26T05:45:15;11.63;;;6.18;;
65835;SDS011;52595;51.608;7.216;2023-06-26T05:47:41;11.57;;;6.28;;
65835;SDS011;52595;51.608;7.216;2023-06-26T05:50:08;9.82;;;6.10;;
65835;SDS011;52595;51.608;7.216;2023-06-26T05:52:34;9.57;;;6.05;;
65835;SDS011;52595;51.608;7.216;2023-06-26T05:55:00;12.70;;;6.05;;
65835;SDS011;52595;51.608;7.216;2023-06-26T05:57:27;10.43;;;6.30;;
65835;SDS011;52595;51.608;7.216;2023-06-26T05:59:53;12.25;;;5.75;;
65835;SDS011;52595;51.608;7.216;2023-06-26T06:02:19;10.70;;;5.35;;
65835;SDS011;52595;51.608;7.216;2023-06-26T06:04:44;10.48;;;5.65;;
65835;SDS011;52595;51.608;7.216;2023-06-26T06:07:10;11.50;;;5.65;;
65835;SDS011;52595;51.608;7.216;2023-06-26T06:09:35;10.00;;;5.53;;
65835;SDS011;52595;51.608;7.216;2023-06-26T06:12:00;9.13;;;4.80;;
65835;SDS011;52595;51.608;7.216;2023-06-26T06:14:26;9.95;;;5.55;;
65835;SDS011;52595;51.608;7.216;2023-06-26T06:16:53;13.07;;;5.32;;
65835;SDS011;52595;51.608;7.216;2023-06-26T06:19:18;10.63;;;5.50;;
65835;SDS011;52595;51.608;7.216;2023-06-26T06:21:44;10.05;;;5.35;;
65835;SDS011;52595;51.608;7.216;2023-06-26T06:24:09;10.18;;;5.72;;
65835;SDS011;52595;51.608;7.216;2023-06-26T06:26:35;10.50;;;5.53;;
65835;SDS011;52595;51.608;7.216;2023-06-26T06:29:00;11.45;;;5.32;;
65835;SDS011;52595;51.608;7.216;2023-06-26T06:31:26;11.25;;;5.25;;
65835;SDS011;52595;51.608;7.216;2023-06-26T06:33:53;13.07;;;5.43;;
65835;SDS011;52595;51.608;7.216;2023-06-26T06:36:21;7.10;;;4.78;;
65835;SDS011;52595;51.608;7.216;2023-06-26T06:38:46;8.80;;;5.07;;
65835;SDS011;52595;51.608;7.216;2023-06-26T06:41:12;10.25;;;5.00;;
65835;SDS011;52595;51.608;7.216;2023-06-26T06:43:37;9.98;;;4.90;;
65835;SDS011;52595;51.608;7.216;2023-06-26T06:46:03;11.25;;;5.00;;
65835;SDS011;52595;51.608;7.216;2023-06-26T06:48:29;9.52;;;4.97;;
65835;SDS011;52595;51.608;7.216;2023-06-26T06:50:54;8.68;;;4.65;;
65835;SDS011;52595;51.608;7.216;2023-06-26T06:53:20;11.70;;;5.20;;
65835;SDS011;52595;51.608;7.216;2023-06-26T06:55:46;11.27;;;5.22;;
65835;SDS011;52595;51.608;7.216;2023-06-26T06:58:11;10.55;;;5.55;;
65835;SDS011;52595;51.608;7.216;2023-06-26T07:00:37;9.85;;;5.35;;
65835;SDS011;52595;51.608;7.216;2023-06-26T07:03:05;9.80;;;5.63;;
65835;SDS011;52595;51.608;7.216;2023-06-26T07:05:30;14.95;;;5.30;;
65835;SDS011;52595;51.608;7.216;2023-06-26T07:07:56;11.80;;;5.40;;
65835;SDS011;52595;51.608;7.216;2023-06-26T07:10:21;9.75;;;5.30;;
65835;SDS011;52595;51.608;7.216;2023-06-26T07:12:46;10.75;;;5.00;;
65835;SDS011;52595;51.608;7.216;2023-06-26T07:15:13;9.18;;;5.22;;
65835;SDS011;52595;51.608;7.216;2023-06-26T07:17:39;13.35;;;5.88;;
65835;SDS011;52595;51.608;7.216;2023-06-26T07:20:04;15.27;;;6.00;;
65835;SDS011;52595;51.608;7.216;2023-06-26T07:22:32;13.45;;;5.93;;
65835;SDS011;52595;51.608;7.216;2023-06-26T07:24:57;16.77;;;6.32;;
65835;SDS011;52595;51.608;7.216;2023-06-26T07:27:23;10.93;;;5.20;;
65835;SDS011;52595;51.608;7.216;2023-06-26T07:29:48;12.77;;;6.10;;
65835;SDS011;52595;51.608;7.216;2023-06-26T07:32:13;10.43;;;6.30;;
65835;SDS011;52595;51.608;7.216;2023-06-26T07:34:39;16.25;;;6.63;;
65835;SDS011;52595;51.608;7.216;2023-06-26T07:37:05;13.57;;;6.40;;
65835;SDS011;52595;51.608;7.216;2023-06-26T07:39:30;12.95;;;6.63;;
65835;SDS011;52595;51.608;7.216;2023-06-26T07:41:56;11.52;;;6.40;;
65835;SDS011;52595;51.608;7.216;2023-06-26T07:44:23;10.52;;;6.20;;
65835;SDS011;52595;51.608;7.216;2023-06-26T07:46:48;13.07;;;6.60;;
65835;SDS011;52595;51.608;7.216;2023-06-26T07:49:14;13.15;;;6.53;;
65835;SDS011;52595;51.608;7.216;2023-06-26T07:51:39;11.63;;;6.47;;
65835;SDS011;52595;51.608;7.216;2023-06-26T07:54:04;12.63;;;6.70;;
65835;SDS011;52595;51.608;7.216;2023-06-26T07:56:30;9.93;;;6.32;;
65835;SDS011;52595;51.608;7.216;2023-06-26T07:58:55;13.07;;;6.53;;
65835;SDS011;52595;51.608;7.216;2023-06-26T08:01:23;13.15;;;6.55;;
65835;SDS011;52595;51.608;7.216;2023-06-26T08:03:48;10.98;;;6.53;;
65835;SDS011;52595;51.608;7.216;2023-06-26T08:06:14;13.55;;;6.25;;
65835;SDS011;52595;51.608;7.216;2023-06-26T08:08:39;11.15;;;5.82;;
65835;SDS011;52595;51.608;7.216;2023-06-26T08:11:05;10.88;;;5.43;;
65835;SDS011;52595;51.608;7.216;2023-06-26T08:13:30;15.52;;;5.38;;
65835;SDS011;52595;51.608;7.216;2023-06-26T08:15:56;11.35;;;5.78;;
65835;SDS011;52595;51.608;7.216;2023-06-26T08:18:21;11.88;;;5.85;;
65835;SDS011;52595;51.608;7.216;2023-06-26T08:20:46;12.85;;;6.03;;
65835;SDS011;52595;51.608;7.216;2023-06-26T08:23:12;13.18;;;5.82;;
65835;SDS011;52595;51.608;7.216;2023-06-26T08:25:37;12.45;;;5.32;;
65835;SDS011;52595;51.608;7.216;2023-06-26T08:28:02;9.77;;;5.40;;
65835;SDS011;52595;51.608;7.216;2023-06-26T08:30:28;9.48;;;5.05;;
65835;SDS011;52595;51.608;7.216;2023-06-26T08:32:54;9.30;;;5.20;;
65835;SDS011;52595;51.608;7.216;2023-06-26T08:35:20;11.32;;;5.60;;
65835;SDS011;52595;51.608;7.216;2023-06-26T08:37:46;13.13;;;5.63;;
65835;SDS011;52595;51.608;7.216;2023-06-26T08:40:11;10.80;;;5.40;;
65835;SDS011;52595;51.608;7.216;2023-06-26T08:42:37;10.65;;;5.38;;
65835;SDS011;52595;51.608;7.216;2023-06-26T08:45:03;14.35;;;5.60;;
65835;SDS011;52595;51.608;7.216;2023-06-26T08:47:29;9.20;;;5.30;;
65835;SDS011;52595;51.608;7.216;2023-06-26T08:50:08;11.00;;;4.93;;
65835;SDS011;52595;51.608;7.216;2023-06-26T08:52:49;10.55;;;5.30;;
65835;SDS011;52595;51.608;7.216;2023-06-26T08:55:21;12.98;;;5.20;;
65835;SDS011;52595;51.608;7.216;2023-06-26T08:57:50;11.45;;;5.15;;
65835;SDS011;52595;51.608;7.216;2023-06-26T09:00:16;13.48;;;5.32;;
65835;SDS011;52595;51.608;7.216;2023-06-26T09:02:43;12.40;;;5.60;;
65835;SDS011;52595;51.608;7.216;2023-06-26T09:05:09;12.07;;;5.00;;
65835;SDS011;52595;51.608;7.216;2023-06-26T09:07:34;12.85;;;5.28;;
65835;SDS011;52595;51.608;7.216;2023-06-26T09:10:00;11.45;;;5.15;;
65835;SDS011;52595;51.608;7.216;2023-06-26T09:12:26;12.48;;;4.80;;
65835;SDS011;52595;51.608;7.216;2023-06-26T09:14:53;11.98;;;4.30;;
65835;SDS011;52595;51.608;7.216;2023-06-26T09:17:23;11.98;;;4.45;;
65835;SDS011;52595;51.608;7.216;2023-06-26T09:19:50;13.53;;;4.40;;
65835;SDS011;52595;51.608;7.216;2023-06-26T09:22:15;9.93;;;4.50;;
65835;SDS011;52595;51.608;7.216;2023-06-26T09:24:42;11.32;;;4.78;;
65835;SDS011;52595;51.608;7.216;2023-06-26T09:27:09;10.27;;;4.90;;
65835;SDS011;52595;51.608;7.216;2023-06-26T09:29:34;9.88;;;4.40;;
65835;SDS011;52595;51.608;7.216;2023-06-26T09:32:00;10.02;;;4.57;;
65835;SDS011;52595;51.608;7.216;2023-06-26T09:34:32;12.90;;;4.70;;
65835;SDS011;52595;51.608;7.216;2023-06-26T09:36:58;11.40;;;4.80;;
65835;SDS011;52595;51.608;7.216;2023-06-26T09:39:29;12.70;;;4.40;;
65835;SDS011;52595;51.608;7.216;2023-06-26T09:41:55;11.55;;;4.28;;
65835;SDS011;52595;51.608;7.216;2023-06-26T09:44:22;10.38;;;4.25;;
65835;SDS011;52595;51.608;7.216;2023-06-26T09:46:48;9.13;;;4.28;;
65835;SDS011;52595;51.608;7.216;2023-06-26T09:49:13;11.00;;;4.47;;
65835;SDS011;52595;51.608;7.216;2023-06-26T09:51:40;8.48;;;3.90;;
65835;SDS011;52595;51.608;7.216;2023-06-26T09:54:06;9.45;;;3.95;;
65835;SDS011;52595;51.608;7.216;2023-06-26T09:56:33;9.30;;;3.97;;
65835;SDS011;52595;51.608;7.216;2023-06-26T09:58:59;7.88;;;3.60;;
65835;SDS011;52595;51.608;7.216;2023-06-26T10:01:26;7.85;;;3.70;;
65835;SDS011;52595;51.608;7.216;2023-06-26T10:03:53;11.93;;;3.92;;
65835;SDS011;52595;51.608;7.216;2023-06-26T10:06:19;17.00;;;3.70;;
65835;SDS011;52595;51.608;7.216;2023-06-26T10:08:48;8.82;;;3.80;;
65835;SDS011;52595;51.608;7.216;2023-06-26T10:11:16;10.02;;;3.80;;
65835;SDS011;52595;51.608;7.216;2023-06-26T10:13:45;9.68;;;3.40;;
65835;SDS011;52595;51.608;7.216;2023-06-26T10:16:16;6.65;;;3.40;;
65835;SDS011;52595;51.608;7.216;2023-06-26T10:18:47;8.90;;;3.70;;
65835;SDS011;52595;51.608;7.216;2023-06-26T10:21:14;10.50;;;3.53;;
65835;SDS011;52595;51.608;7.216;2023-06-26T10:23:40;9.07;;;3.40;;
65835;SDS011;52595;51.608;7.216;2023-06-26T10:26:08;9.13;;;3.80;;
65835;SDS011;52595;51.608;7.216;2023-06-26T10:28:34;8.60;;;3.50;;
65835;SDS011;52595;51.608;7.216;2023-06-26T10:31:01;6.15;;;3.70;;
65835;SDS011;52595;51.608;7.216;2023-06-26T10:33:30;4.40;;;3.00;;
65835;SDS011;52595;51.608;7.216;2023-06-26T10:36:18;7.38;;;3.17;;
65835;SDS011;52595;51.608;7.216;2023-06-26T10:41:40;6.75;;;2.70;;
65835;SDS011;52595;51.608;7.216;2023-06-26T10:44:10;6.15;;;3.00;;
65835;SDS011;52595;51.608;7.216;2023-06-26T10:46:53;5.90;;;3.05;;
65835;SDS011;52595;51.608;7.216;2023-06-26T10:49:21;7.40;;;3.00;;
65835;SDS011;52595;51.608;7.216;2023-06-26T10:51:51;6.30;;;2.88;;
65835;SDS011;52595;51.608;7.216;2023-06-26T10:54:17;6.47;;;2.97;;
65835;SDS011;52595;51.608;7.216;2023-06-26T10:56:48;5.20;;;2.90;;
65835;SDS011;52595;51.608;7.216;2023-06-26T10:59:18;5.95;;;2.95;;
65835;SDS011;52595;51.608;7.216;2023-06-26T11:01:55;7.57;;;3.30;;
65835;SDS011;52595;51.608;7.216;2023-06-26T11:04:43;5.53;;;3.10;;
65835;SDS011;52595;51.608;7.216;2023-06-26T11:07:23;7.53;;;3.20;;
65835;SDS011;52595;51.608;7.216;2023-06-26T11:12:40;7.28;;;3.35;;
65835;SDS011;52595;51.608;7.216;2023-06-26T11:15:07;6.43;;;3.50;;
65835;SDS011;52595;51.608;7.216;2023-06-26T11:17:38;6.63;;;3.40;;
65835;SDS011;52595;51.608;7.216;2023-06-26T11:20:22;8.85;;;3.30;;
65835;SDS011;52595;51.608;7.216;2023-06-26T11:22:47;7.60;;;3.42;;
65835;SDS011;52595;51.608;7.216;2023-06-26T11:25:17;6.35;;;3.05;;
65835;SDS011;52595;51.608;7.216;2023-06-26T11:27:45;5.35;;;3.38;;
65835;SDS011;52595;51.608;7.216;2023-06-26T11:30:11;5.75;;;3.20;;
65835;SDS011;52595;51.608;7.216;2023-06-26T11:32:47;6.07;;;3.15;;
65835;SDS011;52595;51.608;7.216;2023-06-26T11:35:12;4.78;;;2.65;;
65835;SDS011;52595;51.608;7.216;2023-06-26T11:37:38;5.32;;;2.65;;
65835;SDS011;52595;51.608;7.216;2023-06-26T11:40:16;4.63;;;2.60;;
65835;SDS011;52595;51.608;7.216;2023-06-26T11:42:42;5.10;;;2.97;;
65835;SDS011;52595;51.608;7.216;2023-06-26T11:45:09;7.28;;;2.53;;
65835;SDS011;52595;51.608;7.216;2023-06-26T11:47:35;6.30;;;2.70;;
65835;SDS011;52595;51.608;7.216;2023-06-26T11:50:04;7.38;;;2.58;;
65835;SDS011;52595;51.608;7.216;2023-06-26T11:52:30;9.73;;;2.45;;
65835;SDS011;52595;51.608;7.216;2023-06-26T11:54:58;6.18;;;2.38;;
65835;SDS011;52595;51.608;7.216;2023-06-26T11:57:23;4.00;;;2.53;;
65835;SDS011;52595;51.608;7.216;2023-06-26T11:59:49;6.80;;;2.67;;
65835;SDS011;52595;51.608;7.216;2023-06-26T12:02:15;12.55;;;2.60;;
65835;SDS011;52595;51.608;7.216;2023-06-26T12:04:42;6.28;;;2.65;;
65835;SDS011;52595;51.608;7.216;2023-06-26T12:07:09;5.10;;;2.70;;
65835;SDS011;52595;51.608;7.216;2023-06-26T12:09:43;6.28;;;2.20;;
65835;SDS011;52595;51.608;7.216;2023-06-26T12:12:11;5.70;;;2.03;;
65835;SDS011;52595;51.608;7.216;2023-06-26T12:14:39;5.20;;;2.10;;
65835;SDS011;52595;51.608;7.216;2023-06-26T12:17:12;4.75;;;1.80;;
65835;SDS011;52595;51.608;7.216;2023-06-26T12:19:39;5.05;;;2.00;;
65835;SDS011;52595;51.608;7.216;2023-06-26T12:22:08;4.25;;;1.67;;
65835;SDS011;52595;51.608;7.216;2023-06-26T12:24:37;4.72;;;1.60;;
65835;SDS011;52595;51.608;7.216;2023-06-26T12:27:07;2.97;;;1.50;;
65835;SDS011;52595;51.608;7.216;2023-06-26T12:29:39;4.50;;;1.60;;
65835;SDS011;52595;51.608;7.216;2023-06-26T12:32:09;4.60;;;1.70;;
65835;SDS011;52595;51.608;7.216;2023-06-26T12:34:36;3.85;;;1.40;;
65835;SDS011;52595;51.608;7.216;2023-06-26T12:37:04;2.88;;;1.40;;
65835;SDS011;52595;51.608;7.216;2023-06-26T12:39:44;4.28;;;1.30;;
65835;SDS011;52595;51.608;7.216;2023-06-26T12:42:18;4.03;;;1.30;;
65835;SDS011;52595;51.608;7.216;2023-06-26T12:44:44;3.40;;;1.40;;
65835;SDS011;52595;51.608;7.216;2023-06-26T12:47:10;3.67;;;1.58;;
65835;SDS011;52595;51.608;7.216;2023-06-26T12:49:39;4.53;;;1.30;;
65835;SDS011;52595;51.608;7.216;2023-06-26T12:52:12;4.18;;;1.40;;
65835;SDS011;52595;51.608;7.216;2023-06-26T12:54:40;2.20;;;1.35;;
65835;SDS011;52595;51.608;7.216;2023-06-26T12:57:07;1.98;;;1.40;;
65835;SDS011;52595;51.608;7.216;2023-06-26T12:59:33;5.35;;;1.70;;
65835;SDS011;52595;51.608;7.216;2023-06-26T13:01:59;5.75;;;1.80;;
65835;SDS011;52595;51.608;7.216;2023-06-26T13:04:25;8.88;;;1.83;;
65835;SDS011;52595;51.608;7.216;2023-06-26T13:06:51;8.07;;;1.80;;
65835;SDS011;52595;51.608;7.216;2023-06-26T13:09:19;3.53;;;1.58;;
65835;SDS011;52595;51.608;7.216;2023-06-26T13:11:45;3.15;;;1.70;;
65835;SDS011;52595;51.608;7.216;2023-06-26T13:14:10;2.28;;;1.70;;
65835;SDS011;52595;51.608;7.216;2023-06-26T13:16:36;10.15;;;1.75;;
65835;SDS011;52595;51.608;7.216;2023-06-26T13:19:01;5.10;;;1.80;;
65835;SDS011;52595;51.608;7.216;2023-06-26T13:21:27;3.70;;;1.60;;
65835;SDS011;52595;51.608;7.216;2023-06-26T13:23:52;6.38;;;1.92;;
65835;SDS011;52595;51.608;7.216;2023-06-26T13:26:19;3.75;;;1.60;;
65835;SDS011;52595;51.608;7.216;2023-06-26T13:28:44;5.53;;;1.90;;
65835;SDS011;52595;51.608;7.216;2023-06-26T13:31:10;8.68;;;1.95;;
65835;SDS011;52595;51.608;7.216;2023-06-26T13:33:35;4.30;;;2.00;;
65835;SDS011;52595;51.608;7.216;2023-06-26T13:36:01;4.45;;;1.63;;
65835;SDS011;52595;51.608;7.216;2023-06-26T13:38:29;5.43;;;1.90;;
65835;SDS011;52595;51.608;7.216;2023-06-26T13:40:55;2.65;;;1.58;;
65835;SDS011;52595;51.608;7.216;2023-06-26T13:43:22;4.15;;;1.83;;
65835;SDS011;52595;51.608;7.216;2023-06-26T13:45:48;3.50;;;1.80;;
65835;SDS011;52595;51.608;7.216;2023-06-26T13:48:14;9.43;;;1.90;;
65835;SDS011;52595;51.608;7.216;2023-06-26T13:50:40;2.90;;;1.73;;
65835;SDS011;52595;51.608;7.216;2023-06-26T13:53:05;4.03;;;1.75;;
65835;SDS011;52595;51.608;7.216;2023-06-26T13:55:31;8.05;;;1.95;;
65835;SDS011;52595;51.608;7.216;2023-06-26T13:57:56;4.85;;;1.80;;
65835;SDS011;52595;51.608;7.216;2023-06-26T14:00:22;3.80;;;1.80;;
65835;SDS011;52595;51.608;7.216;2023-06-26T14:02:51;5.13;;;1.65;;
65835;SDS011;52595;51.608;7.216;2023-06-26T14:05:17;3.75;;;1.42;;
65835;SDS011;52595;51.608;7.216;2023-06-26T14:07:43;4.68;;;1.60;;
65835;SDS011;52595;51.608;7.216;2023-06-26T14:10:09;3.60;;;1.60;;
65835;SDS011;52595;51.608;7.216;2023-06-26T14:12:35;6.38;;;1.90;;
65835;SDS011;52595;51.608;7.216;2023-06-26T14:15:00;4.40;;;1.65;;
65835;SDS011;52595;51.608;7.216;2023-06-26T14:17:26;3.67;;;1.70;;
65835;SDS011;52595;51.608;7.216;2023-06-26T14:19:51;3.10;;;1.50;;
65835;SDS011;52595;51.608;7.216;2023-06-26T14:22:17;4.55;;;1.70;;
65835;SDS011;52595;51.608;7.216;2023-06-26T14:24:43;5.30;;;1.80;;
65835;SDS011;52595;51.608;7.216;2023-06-26T14:27:08;4.55;;;1.83;;
65835;SDS011;52595;51.608;7.216;2023-06-26T14:29:35;3.45;;;1.60;;
65835;SDS011;52595;51.608;7.216;2023-06-26T14:32:03;7.33;;;1.70;;
65835;SDS011;52595;51.608;7.216;2023-06-26T14:34:29;4.38;;;1.70;;
65835;SDS011;52595;51.608;7.216;2023-06-26T14:36:55;3.15;;;1.50;;
65835;SDS011;52595;51.608;7.216;2023-06-26T14:39:20;3.58;;;1.77;;
65835;SDS011;52595;51.608;7.216;2023-06-26T14:41:46;3.38;;;1.70;;
65835;SDS011;52595;51.608;7.216;2023-06-26T14:44:15;5.82;;;1.80;;
65835;SDS011;52595;51.608;7.216;2023-06-26T14:46:40;4.63;;;1.70;;
65835;SDS011;52595;51.608;7.216;2023-06-26T14:49:06;4.40;;;1.90;;
65835;SDS011;52595;51.608;7.216;2023-06-26T14:51:31;2.35;;;1.60;;
65835;SDS011;52595;51.608;7.216;2023-06-26T14:53:57;3.72;;;1.60;;